Time;durP1;ratioP1;P1;durP2;ratioP2;P2;SDS_P1;SDS_P2;PMS_P1;PMS_P2;Temp;Humidity;BMP_temperature;BMP_pressure;BME280_temperature;BME280_humidity;BME280_pressure;Samples;Min_cycle;Max_cycle;Signal;HPM_P1;HPM_P2
2023/09/30 00:02:12;;;;;;;11.68;4.40;;;;;;;7.14;100.00;101652.31;5056996;28;20024;-75
2023/09/30 00:04:38;;;;;;;13.43;3.80;;;;;;;7.21;100.00;101646.31;5056866;28;20119;-76
2023/09/30 00:07:05;;;;;;;14.90;3.55;;;;;;;7.19;100.00;101642.91;5056978;28;20036;-74
2023/09/30 00:09:31;;;;;;;12.55;3.17;;;;;;;7.16;100.00;101637.00;5057035;28;20036;-74
2023/09/30 00:11:56;;;;;;;13.52;3.40;;;;;;;7.15;100.00;101635.31;5072949;28;20025;-75
2023/09/30 00:14:22;;;;;;;10.70;3.58;;;;;;;7.17;100.00;101633.31;5056687;28;20032;-75
2023/09/30 00:16:48;;;;;;;15.85;3.80;;;;;;;7.17;100.00;101636.00;5056713;28;20467;-74
2023/09/30 00:19:13;;;;;;;15.50;3.75;;;;;;;7.13;100.00;101630.06;5056204;28;20027;-75
2023/09/30 00:21:39;;;;;;;11.02;4.07;;;;;;;7.12;100.00;101622.16;5056499;28;20120;-74
2023/09/30 00:24:05;;;;;;;12.15;3.83;;;;;;;7.13;100.00;101618.53;5039641;28;20090;-74
2023/09/30 00:26:31;;;;;;;16.52;5.25;;;;;;;7.19;100.00;101613.50;5056432;28;20060;-74
2023/09/30 00:28:56;;;;;;;13.52;4.60;;;;;;;7.29;100.00;101613.53;5073002;28;20020;-74
2023/09/30 00:31:22;;;;;;;17.75;4.05;;;;;;;7.47;100.00;101630.66;5039668;28;20467;-74
2023/09/30 00:33:48;;;;;;;17.15;4.32;;;;;;;7.59;100.00;101628.72;5072901;28;20028;-74
2023/09/30 00:36:13;;;;;;;19.33;4.35;;;;;;;7.62;100.00;101631.16;5056371;28;20039;-75
2023/09/30 00:38:40;;;;;;;16.17;4.53;;;;;;;7.67;100.00;101636.09;5039132;28;20059;-74
2023/09/30 00:41:07;;;;;;;12.93;4.22;;;;;;;7.68;100.00;101656.53;5056473;28;20044;-74
2023/09/30 00:43:33;;;;;;;14.95;4.70;;;;;;;7.69;100.00;101653.72;5072826;28;20103;-74
2023/09/30 00:46:13;;;;;;;16.65;3.95;;;;;;;7.63;100.00;101648.06;5039694;28;20047;-74
2023/09/30 00:48:39;;;;;;;13.63;4.30;;;;;;;7.58;100.00;101645.78;5072794;28;20037;-74
2023/09/30 00:51:05;;;;;;;19.00;4.25;;;;;;;7.58;100.00;101631.56;5055969;28;20024;-75
2023/09/30 00:53:31;;;;;;;14.10;4.20;;;;;;;7.52;100.00;101624.94;5072270;28;20412;-74
2023/09/30 00:55:57;;;;;;;14.85;4.55;;;;;;;7.42;100.00;101627.53;5056017;28;20020;-74
2023/09/30 00:58:27;;;;;;;12.98;4.00;;;;;;;7.36;100.00;101624.56;5055946;28;20028;-75
2023/09/30 01:00:53;;;;;;;13.73;3.60;;;;;;;7.26;100.00;101629.88;5039796;28;20125;-75
2023/09/30 01:03:19;;;;;;;14.02;3.85;;;;;;;7.18;100.00;101611.81;5055974;28;20063;-74
2023/09/30 01:05:45;;;;;;;11.60;3.70;;;;;;;7.15;100.00;101608.56;5055500;28;20020;-74
2023/09/30 01:08:11;;;;;;;14.35;3.63;;;;;;;7.02;100.00;101616.78;5055680;28;20047;-74
2023/09/30 01:10:36;;;;;;;11.13;3.33;;;;;;;6.86;100.00;101622.59;5055734;28;20028;-74
2023/09/30 01:13:02;;;;;;;6.93;3.22;;;;;;;6.77;100.00;101623.34;5039149;28;20063;-74
2023/09/30 01:15:29;;;;;;;12.15;3.25;;;;;;;6.66;100.00;101626.09;5055884;28;20024;-74
2023/09/30 01:17:55;;;;;;;11.13;3.10;;;;;;;6.55;100.00;101630.50;5038815;28;20028;-75
2023/09/30 01:20:23;;;;;;;14.00;3.42;;;;;;;6.47;100.00;101635.66;5072050;28;20039;-74
2023/09/30 01:22:49;;;;;;;8.68;3.63;;;;;;;6.48;100.00;101642.69;5071985;28;20021;-76
2023/09/30 01:25:15;;;;;;;11.48;3.20;;;;;;;6.39;100.00;101643.47;5071969;28;20383;-74
2023/09/30 01:27:40;;;;;;;15.38;3.28;;;;;;;6.34;100.00;101629.63;5055740;28;20537;-74
2023/09/30 01:30:10;;;;;;;12.15;3.13;;;;;;;6.36;100.00;101631.19;5072221;28;20422;-74
2023/09/30 01:32:37;;;;;;;12.88;2.70;;;;;;;6.31;100.00;101621.88;5056238;28;20032;-74
2023/09/30 01:35:03;;;;;;;12.35;2.70;;;;;;;6.18;100.00;101631.88;5055558;28;20037;-74
2023/09/30 01:37:28;;;;;;;6.20;2.47;;;;;;;6.06;100.00;101634.59;5072300;28;20124;-75
2023/09/30 01:39:55;;;;;;;7.18;2.80;;;;;;;6.00;100.00;101629.72;5055593;28;20036;-74
2023/09/30 01:42:21;;;;;;;7.95;3.00;;;;;;;6.01;100.00;101615.41;5055548;28;20047;-74
2023/09/30 01:44:46;;;;;;;11.27;3.03;;;;;;;6.05;100.00;101618.66;5055415;28;20036;-75
2023/09/30 01:47:12;;;;;;;8.88;2.83;;;;;;;6.12;100.00;101619.88;5055213;28;20051;-74
2023/09/30 01:49:38;;;;;;;7.32;2.97;;;;;;;6.10;100.00;101614.66;5040486;28;20379;-74
2023/09/30 01:52:03;;;;;;;5.13;1.90;;;;;;;6.03;100.00;101602.78;5059438;28;20496;-74
2023/09/30 01:54:29;;;;;;;7.50;2.78;;;;;;;6.03;100.00;101604.59;5059439;28;20060;-75
2023/09/30 01:56:55;;;;;;;9.45;2.90;;;;;;;6.00;100.00;101604.84;5059380;28;20033;-74
2023/09/30 01:59:21;;;;;;;9.30;3.65;;;;;;;6.09;100.00;101604.13;5042767;28;20032;-74
2023/09/30 02:01:47;;;;;;;10.38;2.90;;;;;;;6.21;100.00;101596.91;5059389;28;20028;-74
2023/09/30 02:04:15;;;;;;;12.27;3.20;;;;;;;6.39;100.00;101593.53;5042682;28;20044;-74
2023/09/30 02:06:41;;;;;;;12.10;3.00;;;;;;;6.57;100.00;101585.81;5075691;28;20036;-74
2023/09/30 02:09:08;;;;;;;10.25;3.05;;;;;;;6.64;100.00;101577.28;5042465;28;20028;-74
2023/09/30 02:11:37;;;;;;;13.63;3.30;;;;;;;6.71;100.00;101575.78;5042445;28;20040;-74
2023/09/30 02:14:05;;;;;;;10.65;3.40;;;;;;;6.74;100.00;101572.84;5042224;28;20037;-74
2023/09/30 02:16:31;;;;;;;12.80;3.13;;;;;;;6.77;100.00;101570.78;5058978;28;20491;-75
2023/09/30 02:18:57;;;;;;;8.35;3.15;;;;;;;6.83;100.00;101564.06;5059143;28;20029;-74
2023/09/30 02:21:22;;;;;;;9.75;3.15;;;;;;;6.87;100.00;101559.28;5058832;28;20416;-75
2023/09/30 02:23:48;;;;;;;7.53;2.50;;;;;;;6.89;100.00;101558.16;5075406;28;20559;-74
2023/09/30 02:26:17;;;;;;;9.90;2.88;;;;;;;6.92;100.00;101557.06;5058601;28;20387;-74
2023/09/30 02:28:43;;;;;;;11.32;3.30;;;;;;;6.96;100.00;101545.09;5058664;28;20028;-74
2023/09/30 02:31:09;;;;;;;11.40;3.10;;;;;;;7.04;100.00;101535.47;5058401;28;20060;-74
2023/09/30 02:33:38;;;;;;;14.35;3.10;;;;;;;7.28;100.00;101542.31;5042154;28;20070;-74
2023/09/30 02:36:08;;;;;;;11.48;2.78;;;;;;;7.37;100.00;101532.63;5059295;28;20037;-74
2023/09/30 02:38:36;;;;;;;9.32;2.88;;;;;;;7.54;100.00;101540.00;5058644;28;20040;-74
2023/09/30 02:41:02;;;;;;;14.20;3.15;;;;;;;7.63;100.00;101535.66;5074719;28;20033;-74
2023/09/30 02:43:29;;;;;;;12.15;2.80;;;;;;;7.66;100.00;101527.34;5058531;28;20076;-74
2023/09/30 02:45:54;;;;;;;15.55;3.13;;;;;;;7.69;100.00;101529.72;5041867;28;20037;-74
2023/09/30 02:48:20;;;;;;;13.98;3.42;;;;;;;7.73;100.00;101528.50;5058452;28;20033;-74
2023/09/30 02:50:45;;;;;;;9.35;3.00;;;;;;;7.80;100.00;101526.94;5057805;28;20493;-75
2023/09/30 02:53:12;;;;;;;15.13;3.17;;;;;;;7.91;100.00;101526.81;5041785;28;20378;-74
2023/09/30 02:55:39;;;;;;;11.48;2.92;;;;;;;7.96;100.00;101520.19;5058350;28;20047;-74
2023/09/30 02:58:04;;;;;;;15.77;3.17;;;;;;;8.00;100.00;101516.25;5058374;28;20029;-74
2023/09/30 03:00:32;;;;;;;15.43;4.55;;;;;;;8.01;100.00;101504.53;5074260;28;20364;-74
2023/09/30 03:03:01;;;;;;;12.95;2.80;;;;;;;8.02;100.00;101506.22;5057876;28;20025;-75
2023/09/30 03:05:27;;;;;;;15.82;3.03;;;;;;;8.12;100.00;101509.75;5058224;28;20455;-74
2023/09/30 03:07:55;;;;;;;12.73;2.92;;;;;;;8.13;100.00;101506.94;5058347;28;20105;-74
2023/09/30 03:10:23;;;;;;;15.45;3.25;;;;;;;8.22;100.00;101509.75;5041341;28;20047;-74
2023/09/30 03:12:50;;;;;;;12.23;3.00;;;;;;;8.28;100.00;101503.81;5058260;28;20024;-74
2023/09/30 03:15:16;;;;;;;11.80;3.08;;;;;;;8.30;100.00;101502.69;5041178;28;20032;-74
2023/09/30 03:17:43;;;;;;;11.63;2.92;;;;;;;8.37;100.00;101505.66;5057716;28;20032;-74
2023/09/30 03:20:11;;;;;;;15.18;3.20;;;;;;;8.41;100.00;101492.84;5057193;28;20037;-75
2023/09/30 03:22:42;;;;;;;14.85;3.60;;;;;;;8.46;100.00;101496.78;5074032;28;20025;-76
2023/09/30 03:25:12;;;;;;;13.82;3.47;;;;;;;8.48;100.00;101497.47;5073972;28;20035;-74
2023/09/30 03:27:38;;;;;;;14.15;2.88;;;;;;;8.53;100.00;101492.53;5057567;28;20024;-74
2023/09/30 03:30:08;;;;;;;19.35;3.53;;;;;;;8.58;100.00;101492.13;5041006;28;20020;-74
2023/09/30 03:32:37;;;;;;;20.15;3.22;;;;;;;8.61;100.00;101494.50;5057630;28;20045;-74
2023/09/30 03:35:14;;;;;;;12.38;3.10;;;;;;;8.64;100.00;101493.38;5057909;28;20029;-74
2023/09/30 03:37:41;;;;;;;17.63;3.30;;;;;;;8.71;100.00;101476.56;5057823;28;20079;-75
2023/09/30 03:40:19;;;;;;;10.00;3.53;;;;;;;8.74;100.00;101478.09;5057491;28;20554;-75
2023/09/30 03:42:49;;;;;;;16.05;3.25;;;;;;;8.81;100.00;101479.19;5058985;28;20450;-74
2023/09/30 03:45:15;;;;;;;13.55;3.00;;;;;;;8.87;100.00;101469.72;5057386;28;20051;-74
2023/09/30 03:47:41;;;;;;;14.15;3.60;;;;;;;8.90;100.00;101466.75;5040779;28;20044;-74
2023/09/30 03:50:14;;;;;;;13.30;3.60;;;;;;;8.90;100.00;101464.06;5073642;28;20090;-74
2023/09/30 03:52:43;;;;;;;15.50;3.70;;;;;;;8.94;100.00;101454.72;5058092;28;20079;-74
2023/09/30 03:55:15;;;;;;;16.20;4.07;;;;;;;8.96;100.00;101444.69;5073728;28;20111;-74
2023/09/30 03:57:40;;;;;;;12.43;3.33;;;;;;;9.01;100.00;101442.41;5057260;28;20032;-74
2023/09/30 04:00:06;;;;;;;10.40;3.60;;;;;;;9.03;100.00;101435.06;5057014;28;20561;-74
2023/09/30 04:02:35;;;;;;;15.63;4.00;;;;;;;9.10;100.00;101436.13;5056858;28;20033;-74
2023/09/30 04:05:05;;;;;;;15.95;4.10;;;;;;;9.14;100.00;101432.16;5040339;28;20043;-74
2023/09/30 04:07:31;;;;;;;14.23;3.85;;;;;;;9.18;100.00;101427.34;5073364;28;20032;-74
2023/09/30 04:09:56;;;;;;;13.60;3.42;;;;;;;9.19;100.00;101445.97;5073178;28;20102;-74
2023/09/30 04:12:25;;;;;;;15.23;3.60;;;;;;;9.20;100.00;101436.94;5072676;28;20455;-74
2023/09/30 04:14:52;;;;;;;12.30;3.70;;;;;;;9.23;100.00;101431.28;5040467;28;20044;-74
2023/09/30 04:17:17;;;;;;;12.82;3.78;;;;;;;9.24;100.00;101432.97;5056728;28;20071;-75
2023/09/30 04:19:43;;;;;;;11.30;3.85;;;;;;;9.23;100.00;101420.56;5056217;28;20488;-74
2023/09/30 04:22:08;;;;;;;18.00;4.28;;;;;;;9.25;100.00;101428.44;5073064;28;20036;-74
2023/09/30 04:24:34;;;;;;;21.13;4.68;;;;;;;9.28;100.00;101419.25;5056080;28;20024;-74
2023/09/30 04:27:03;;;;;;;16.75;3.95;;;;;;;9.30;100.00;101428.84;5056102;28;20032;-74
2023/09/30 04:29:29;;;;;;;16.52;3.80;;;;;;;9.27;100.00;101421.09;5056714;28;20051;-76
2023/09/30 04:31:58;;;;;;;12.23;3.42;;;;;;;9.29;100.00;101415.53;5039252;28;20086;-75
2023/09/30 04:34:24;;;;;;;14.88;3.28;;;;;;;9.29;100.00;101419.09;5056304;28;20036;-74
2023/09/30 04:36:49;;;;;;;15.30;4.18;;;;;;;9.28;100.00;101408.50;5039790;28;20153;-74
2023/09/30 04:39:15;;;;;;;15.93;4.10;;;;;;;9.28;100.00;101409.34;5039799;28;20048;-74
2023/09/30 04:41:41;;;;;;;13.23;4.43;;;;;;;9.35;100.00;101405.06;5039713;28;20040;-74
2023/09/30 04:44:11;;;;;;;14.70;4.20;;;;;;;9.38;100.00;101411.97;5056376;28;20034;-74
2023/09/30 04:46:40;;;;;;;16.13;4.43;;;;;;;9.36;100.00;101408.59;5056363;28;20544;-75
2023/09/30 04:49:09;;;;;;;13.75;4.00;;;;;;;9.38;100.00;101411.97;5056361;28;20036;-75
2023/09/30 04:51:35;;;;;;;14.50;4.22;;;;;;;9.39;100.00;101408.28;5039141;28;20492;-74
2023/09/30 04:54:01;;;;;;;15.85;4.13;;;;;;;9.40;100.00;101407.31;5072641;28;20047;-74
2023/09/30 04:56:27;;;;;;;17.92;4.90;;;;;;;9.42;100.00;101405.28;5056110;28;20474;-74
2023/09/30 04:58:53;;;;;;;22.98;4.97;;;;;;;9.49;100.00;101408.22;5055971;28;20039;-75
2023/09/30 05:01:18;;;;;;;17.60;5.05;;;;;;;9.52;100.00;101413.28;5056026;28;20394;-74
2023/09/30 05:03:48;;;;;;;22.83;4.90;;;;;;;9.53;100.00;101413.13;5039341;28;20043;-74
2023/09/30 05:06:14;;;;;;;18.05;4.22;;;;;;;9.56;100.00;101406.63;5039777;28;20036;-74
2023/09/30 05:08:39;;;;;;;19.55;4.40;;;;;;;9.56;100.00;101393.19;5039356;28;20039;-74
2023/09/30 05:11:05;;;;;;;16.75;4.78;;;;;;;9.56;100.00;101388.66;5055538;28;20034;-74
2023/09/30 05:13:30;;;;;;;19.40;6.00;;;;;;;9.56;100.00;101385.97;5055657;28;20139;-74
2023/09/30 05:15:56;;;;;;;20.00;4.75;;;;;;;9.56;100.00;101396.72;5072039;28;20032;-75
2023/09/30 05:18:21;;;;;;;23.98;4.68;;;;;;;9.57;100.00;101386.81;5073515;28;20028;-74
2023/09/30 05:20:49;;;;;;;17.13;4.85;;;;;;;9.55;100.00;101378.06;5055262;28;20029;-74
2023/09/30 05:23:15;;;;;;;23.00;4.75;;;;;;;9.54;100.00;101373.72;5039529;28;20040;-75
2023/09/30 05:25:40;;;;;;;18.83;4.53;;;;;;;9.56;100.00;101377.94;5045245;28;20449;-75
2023/09/30 05:28:06;;;;;;;21.98;4.82;;;;;;;9.60;100.00;101371.22;5062474;28;20428;-74
2023/09/30 05:30:33;;;;;;;16.17;4.70;;;;;;;9.62;100.00;101363.03;5045421;28;20025;-74
2023/09/30 05:33:00;;;;;;;20.88;4.70;;;;;;;9.64;100.00;101351.16;5062332;28;20135;-75
2023/09/30 05:35:26;;;;;;;14.77;4.57;;;;;;;9.68;100.00;101346.28;5062194;28;20404;-75
2023/09/30 05:37:54;;;;;;;15.65;4.30;;;;;;;9.72;100.00;101336.09;5078548;28;20050;-74
2023/09/30 05:40:26;;;;;;;16.95;3.70;;;;;;;9.74;100.00;101334.94;5046029;28;20123;-74
2023/09/30 05:42:58;;;;;;;20.23;4.47;;;;;;;9.79;100.00;101339.84;5063057;28;20043;-74
2023/09/30 05:45:24;;;;;;;15.15;3.85;;;;;;;9.82;100.00;101323.44;5029928;28;20128;-74
2023/09/30 05:47:52;;;;;;;15.48;4.22;;;;;;;9.89;100.00;101325.31;5078703;28;20036;-75
2023/09/30 05:50:23;;;;;;;15.68;4.22;;;;;;;9.91;100.00;101301.81;5045716;28;20033;-74
2023/09/30 05:52:50;;;;;;;18.60;5.25;;;;;;;9.94;100.00;101295.28;5046190;28;20040;-74
2023/09/30 05:55:20;;;;;;;13.52;3.80;;;;;;;9.96;100.00;101293.28;5062324;28;20119;-74
2023/09/30 05:57:49;;;;;;;12.10;3.38;;;;;;;10.00;100.00;101288.44;5062252;28;20036;-74
2023/09/30 06:00:30;;;;;;;12.32;3.13;;;;;;;10.00;100.00;101286.63;5061803;28;20038;-74
2023/09/30 06:02:59;;;;;;;13.52;3.35;;;;;;;10.01;100.00;101277.53;5063763;28;20036;-74
2023/09/30 06:05:30;;;;;;;13.05;2.83;;;;;;;10.05;100.00;101286.94;5061790;28;20037;-76
2023/09/30 06:07:56;;;;;;;11.18;3.20;;;;;;;10.08;100.00;101281.28;5062618;28;20040;-75
2023/09/30 06:10:22;;;;;;;11.07;3.15;;;;;;;10.09;100.00;101274.91;5045219;28;20040;-75
2023/09/30 06:12:48;;;;;;;14.57;3.92;;;;;;;10.09;100.00;101256.09;5078383;28;20035;-75
2023/09/30 06:15:21;;;;;;;10.48;3.00;;;;;;;10.13;100.00;101256.59;5043739;28;20058;-75
2023/09/30 06:17:49;;;;;;;5.85;2.47;;;;;;;10.15;100.00;101265.34;5061763;28;20548;-76
2023/09/30 06:20:18;;;;;;;13.35;2.58;;;;;;;10.23;100.00;101269.91;5061124;28;20041;-75
2023/09/30 06:22:49;;;;;;;11.73;2.97;;;;;;;10.26;100.00;101258.84;5045167;28;20121;-75
2023/09/30 06:25:16;;;;;;;16.65;2.67;;;;;;;10.31;100.00;101253.84;5045506;28;20032;-75
2023/09/30 06:27:48;;;;;;;14.63;3.08;;;;;;;10.36;100.00;101256.91;5078267;28;20040;-75
2023/09/30 06:30:19;;;;;;;13.00;2.97;;;;;;;10.42;100.00;101255.41;5061568;28;20067;-76
2023/09/30 06:32:45;;;;;;;15.45;3.42;;;;;;;10.47;100.00;101251.22;5062189;28;20028;-75
2023/09/30 06:35:11;;;;;;;15.15;3.70;;;;;;;10.52;100.00;101248.88;5077890;28;20566;-75
2023/09/30 06:37:40;;;;;;;12.35;3.00;;;;;;;10.56;100.00;101241.34;5041138;28;20036;-75
2023/09/30 06:40:11;;;;;;;16.63;3.28;;;;;;;10.56;100.00;101239.50;5075216;28;20086;-75
2023/09/30 06:42:37;;;;;;;9.68;2.65;;;;;;;10.60;100.00;101249.94;5075097;28;20064;-75
2023/09/30 06:45:06;;;;;;;12.27;3.08;;;;;;;10.62;100.00;101245.22;5074798;28;20071;-75
2023/09/30 06:47:33;;;;;;;16.33;3.25;;;;;;;10.63;100.00;101246.91;5074718;28;20105;-75
2023/09/30 06:50:07;;;;;;;11.57;2.78;;;;;;;10.64;100.00;101252.13;5058093;28;20051;-75
2023/09/30 06:52:41;;;;;;;11.90;2.60;;;;;;;10.63;100.00;101253.13;5058702;28;20423;-75
2023/09/30 06:55:08;;;;;;;9.68;2.28;;;;;;;10.64;100.00;101245.88;5058316;28;20067;-75
2023/09/30 06:57:34;;;;;;;11.00;2.85;;;;;;;10.62;100.00;101246.06;5058046;28;20039;-75
2023/09/30 07:00:00;;;;;;;11.90;3.05;;;;;;;10.64;100.00;101243.19;5058016;28;20119;-75
2023/09/30 07:02:25;;;;;;;13.73;3.10;;;;;;;10.60;100.00;101228.41;5074279;28;20112;-74
2023/09/30 07:04:52;;;;;;;13.52;2.58;;;;;;;10.66;100.00;101230.44;5040863;28;20089;-74
2023/09/30 07:07:18;;;;;;;10.95;2.58;;;;;;;10.67;100.00;101226.75;5074473;28;20035;-74
2023/09/30 07:09:44;;;;;;;10.35;2.63;;;;;;;10.69;100.00;101222.91;5057818;28;20028;-75
2023/09/30 07:12:09;;;;;;;15.35;2.22;;;;;;;10.73;100.00;101210.78;5041096;28;20028;-75
2023/09/30 07:14:35;;;;;;;14.00;3.22;;;;;;;10.75;100.00;101202.56;5057615;28;20459;-75
2023/09/30 07:17:01;;;;;;;6.95;2.38;;;;;;;10.81;100.00;101201.88;5041054;28;20045;-75
2023/09/30 07:19:26;;;;;;;15.05;2.78;;;;;;;10.88;100.00;101191.31;5041141;28;20028;-75
2023/09/30 07:21:52;;;;;;;10.45;2.45;;;;;;;10.92;100.00;101188.09;5057770;28;20036;-74
2023/09/30 07:24:17;;;;;;;12.05;2.53;;;;;;;10.95;100.00;101178.84;5073939;28;20506;-74
2023/09/30 07:26:43;;;;;;;15.32;2.58;;;;;;;10.93;100.00;101184.41;5073990;28;20033;-74
2023/09/30 07:29:09;;;;;;;10.98;2.72;;;;;;;10.99;100.00;101190.97;5041178;28;20592;-74
2023/09/30 07:31:35;;;;;;;13.27;2.35;;;;;;;10.98;100.00;101187.44;5040603;28;20025;-75
2023/09/30 07:34:02;;;;;;;10.18;2.40;;;;;;;11.00;100.00;101174.66;5056735;28;20037;-74
2023/09/30 07:36:28;;;;;;;17.88;2.70;;;;;;;11.00;100.00;101185.41;5073272;28;20109;-74
2023/09/30 07:38:54;;;;;;;14.57;2.50;;;;;;;10.97;100.00;101191.13;5057421;28;20090;-74
2023/09/30 07:41:20;;;;;;;11.65;2.38;;;;;;;11.04;100.00;101206.63;5057687;28;20044;-74
2023/09/30 07:43:45;;;;;;;7.90;1.88;;;;;;;11.05;100.00;101202.91;5057574;28;20046;-74
2023/09/30 07:46:15;;;;;;;10.50;2.08;;;;;;;11.06;100.00;101188.44;5040376;28;20040;-76
2023/09/30 07:48:41;;;;;;;9.20;2.45;;;;;;;11.05;100.00;101178.69;5040408;28;20021;-75
2023/09/30 07:51:10;;;;;;;9.85;2.70;;;;;;;11.05;100.00;101174.16;5056351;28;20128;-75
2023/09/30 07:53:35;;;;;;;9.93;3.00;;;;;;;11.08;100.00;101186.44;5057331;28;20056;-74
2023/09/30 07:56:01;;;;;;;12.05;2.50;;;;;;;11.09;100.00;101178.19;5071816;28;20123;-76
2023/09/30 07:58:27;;;;;;;8.40;2.47;;;;;;;11.13;100.00;101173.31;5056300;28;20047;-75
2023/09/30 08:00:53;;;;;;;13.70;2.60;;;;;;;11.17;100.00;101174.66;5056185;28;20550;-74
2023/09/30 08:03:19;;;;;;;7.05;1.52;;;;;;;11.21;100.00;101176.81;5071330;28;20103;-75
2023/09/30 08:05:46;;;;;;;12.63;2.40;;;;;;;11.25;100.00;101177.34;5055852;28;20127;-74
2023/09/30 08:08:12;;;;;;;18.13;2.50;;;;;;;11.30;100.00;101187.59;5072495;28;20032;-74
2023/09/30 08:10:37;;;;;;;10.57;2.38;;;;;;;11.30;100.00;101183.06;5039111;28;20040;-75
2023/09/30 08:13:03;;;;;;;10.52;2.10;;;;;;;11.26;100.00;101179.00;5038968;28;20046;-74
2023/09/30 08:15:30;;;;;;;6.05;1.52;;;;;;;11.28;100.00;101174.31;5055873;28;20131;-74
2023/09/30 08:17:56;;;;;;;6.38;1.45;;;;;;;11.28;100.00;101160.84;5056937;28;20032;-74
2023/09/30 08:20:22;;;;;;;5.32;1.00;;;;;;;11.28;100.00;101155.47;5056836;28;20090;-74
2023/09/30 08:22:48;;;;;;;4.47;1.40;;;;;;;11.29;100.00;101153.59;5040068;28;20036;-74
2023/09/30 08:25:13;;;;;;;5.97;1.45;;;;;;;11.29;100.00;101148.22;5040040;28;20036;-74
2023/09/30 08:27:39;;;;;;;2.97;1.10;;;;;;;11.29;100.00;101134.75;5040140;28;20032;-74
2023/09/30 08:30:06;;;;;;;5.20;1.42;;;;;;;11.32;100.00;101135.25;5039866;28;20036;-74
2023/09/30 08:32:34;;;;;;;5.80;1.42;;;;;;;11.33;100.00;101126.19;5056392;28;20032;-74
2023/09/30 08:35:00;;;;;;;6.32;1.25;;;;;;;11.40;100.00;101119.06;5055995;28;20195;-75
2023/09/30 08:37:26;;;;;;;6.97;1.25;;;;;;;11.42;100.00;101106.28;5072616;28;20029;-74
2023/09/30 08:39:52;;;;;;;5.40;1.58;;;;;;;11.42;100.00;101097.38;5056270;28;20510;-74
2023/09/30 08:42:19;;;;;;;5.65;1.25;;;;;;;11.41;100.00;101093.00;5039746;28;20063;-75
2023/09/30 08:44:46;;;;;;;6.18;1.27;;;;;;;11.39;100.00;101097.72;5039949;28;20040;-75
2023/09/30 08:47:12;;;;;;;3.33;1.20;;;;;;;11.41;100.00;101096.53;5056274;28;20029;-76
2023/09/30 08:49:39;;;;;;;3.75;1.50;;;;;;;11.42;100.00;101092.00;5056261;28;20089;-76
2023/09/30 08:52:06;;;;;;;7.10;1.40;;;;;;;11.40;100.00;101097.53;5055997;28;20483;-76
2023/09/30 08:54:31;;;;;;;4.70;1.20;;;;;;;11.43;100.00;101096.34;5039673;28;20043;-76
2023/09/30 08:56:58;;;;;;;4.63;1.15;;;;;;;11.46;100.00;101087.94;5072344;28;20028;-76
2023/09/30 08:59:25;;;;;;;5.15;1.60;;;;;;;11.50;100.00;101081.19;5038925;28;20040;-76
2023/09/30 09:01:51;;;;;;;7.22;1.98;;;;;;;11.52;100.00;101067.56;5039176;28;20024;-75
2023/09/30 09:04:17;;;;;;;3.83;1.55;;;;;;;11.49;100.00;101057.97;5056011;28;20037;-76
2023/09/30 09:06:44;;;;;;;3.75;1.33;;;;;;;11.49;100.00;101066.06;5072637;28;20032;-76
2023/09/30 09:09:19;;;;;;;2.35;1.15;;;;;;;11.51;100.00;101050.56;5072473;28;20115;-76
2023/09/30 09:11:46;;;;;;;6.13;1.20;;;;;;;11.49;100.00;101030.22;5039112;28;20028;-76
2023/09/30 09:14:11;;;;;;;6.10;1.67;;;;;;;11.55;100.00;101035.72;5055825;28;20032;-76
2023/09/30 09:16:37;;;;;;;5.15;1.42;;;;;;;11.54;100.00;101034.06;5039328;28;20044;-76
2023/09/30 09:19:14;;;;;;;2.03;1.02;;;;;;;11.57;100.00;101036.41;5072406;28;20024;-75
2023/09/30 09:21:53;;;;;;;0.30;0.30;;;;;;;11.57;100.00;101028.31;5055736;28;20029;-75
2023/09/30 09:24:35;;;;;;;0.30;0.30;;;;;;;11.65;100.00;101016.66;5039247;28;20489;-76
2023/09/30 09:27:11;;;;;;;0.20;0.20;;;;;;;11.68;100.00;100997.44;5055506;28;20028;-76
2023/09/30 09:29:38;;;;;;;0.30;0.30;;;;;;;11.70;100.00;100998.13;5072094;28;20506;-76
2023/09/30 09:32:13;;;;;;;0.22;0.22;;;;;;;11.70;100.00;100983.81;5073458;28;20037;-76
2023/09/30 09:34:40;;;;;;;0.30;0.30;;;;;;;11.71;100.00;100972.84;5072308;28;20029;-76
2023/09/30 09:37:20;;;;;;;0.30;0.30;;;;;;;11.74;100.00;100972.50;5055298;28;20028;-76
2023/09/30 09:39:49;;;;;;;0.20;0.20;;;;;;;11.75;100.00;100959.84;5039096;28;20036;-76
2023/09/30 09:42:27;;;;;;;0.30;0.30;;;;;;;11.77;100.00;100952.44;5055635;28;20046;-76
2023/09/30 09:44:55;;;;;;;0.30;0.30;;;;;;;11.80;100.00;100952.94;5039171;28;20119;-76
2023/09/30 09:47:21;;;;;;;0.30;0.30;;;;;;;11.82;100.00;100950.88;5071926;28;20024;-76
2023/09/30 09:49:47;;;;;;;0.30;0.30;;;;;;;11.84;100.00;100950.72;5055358;28;20430;-76
2023/09/30 09:52:15;;;;;;;0.30;0.30;;;;;;;11.85;100.00;100947.00;5072009;28;20064;-76
2023/09/30 09:54:40;;;;;;;0.30;0.30;;;;;;;11.87;100.00;100951.22;5055328;28;20495;-76
2023/09/30 09:57:10;;;;;;;0.30;0.30;;;;;;;11.88;100.00;100947.53;5038875;28;20043;-76
2023/09/30 09:59:36;;;;;;;0.30;0.30;;;;;;;11.90;100.00;100925.75;5055101;28;20071;-76
2023/09/30 10:02:10;;;;;;;0.30;0.30;;;;;;;11.94;100.00;100910.09;5055542;28;20039;-76
2023/09/30 10:04:36;;;;;;;0.35;0.35;;;;;;;11.98;100.00;100892.53;5055412;28;20035;-76
2023/09/30 10:07:03;;;;;;;0.30;0.30;;;;;;;12.00;100.00;100880.53;5054998;28;20067;-75
2023/09/30 10:09:30;;;;;;;0.30;0.30;;;;;;;12.02;100.00;100869.59;5071688;28;20116;-76
2023/09/30 10:12:00;;;;;;;0.30;0.30;;;;;;;12.12;100.00;100866.63;5040317;28;20052;-76
2023/09/30 10:14:32;;;;;;;0.30;0.30;;;;;;;12.15;100.00;100847.41;5042424;28;20036;-76
2023/09/30 10:16:58;;;;;;;0.30;0.30;;;;;;;12.20;100.00;100859.31;5058545;28;20061;-75
2023/09/30 10:19:24;;;;;;;0.30;0.30;;;;;;;12.18;100.00;100857.81;5073867;28;20024;-76
2023/09/30 10:22:21;;;;;;;0.38;0.38;;;;;;;12.18;100.00;100876.69;5056743;28;20028;-76
2023/09/30 10:24:51;;;;;;;0.30;0.30;;;;;;;12.25;100.00;100858.75;5056836;28;20119;-76
2023/09/30 10:27:29;;;;;;;0.20;0.20;;;;;;;12.30;100.00;100853.63;5073008;28;20386;-77
2023/09/30 10:30:03;;;;;;;0.30;0.30;;;;;;;12.34;100.00;100828.00;5074183;28;20043;-77
2023/09/30 10:32:56;;;;;;;0.30;0.30;;;;;;;12.39;100.00;100851.72;5057385;28;20032;-77
2023/09/30 10:35:27;;;;;;;0.30;0.30;;;;;;;12.33;100.00;100839.78;5074179;28;20031;-76
2023/09/30 10:38:24;;;;;;;0.30;0.30;;;;;;;12.32;100.00;100836.25;5058786;28;20082;-77
2023/09/30 10:40:50;;;;;;;0.32;0.32;;;;;;;12.39;100.00;100824.75;5058557;28;20032;-77
2023/09/30 10:43:37;;;;;;;0.30;0.30;;;;;;;12.41;100.00;100811.88;5075249;28;20043;-76
2023/09/30 10:46:07;;;;;;;0.35;0.35;;;;;;;12.44;100.00;100808.84;5058990;28;20123;-76
2023/09/30 10:48:43;;;;;;;0.30;0.30;;;;;;;12.39;100.00;100801.31;5059792;28;20559;-75
2023/09/30 10:51:18;;;;;;;0.30;0.30;;;;;;;12.39;100.00;100790.53;5074553;28;20036;-76
2023/09/30 10:53:56;;;;;;;0.30;0.30;;;;;;;12.47;100.00;100771.53;5058274;28;20053;-76
2023/09/30 10:56:22;;;;;;;0.30;0.30;;;;;;;12.62;100.00;100752.66;5076130;28;20028;-76
2023/09/30 10:58:52;;;;;;;0.30;0.30;;;;;;;12.70;100.00;100755.22;5058203;28;20036;-76
2023/09/30 11:01:19;;;;;;;0.30;0.30;;;;;;;12.76;100.00;100751.75;5058300;28;20102;-77
2023/09/30 11:03:45;;;;;;;0.30;0.30;;;;;;;12.85;100.00;100746.25;5058369;28;20131;-76
2023/09/30 11:06:19;;;;;;;0.40;0.40;;;;;;;12.86;100.00;100745.22;5041370;28;20364;-76
2023/09/30 11:08:59;;;;;;;0.38;0.38;;;;;;;12.81;100.00;100736.84;5058556;28;20039;-76
2023/09/30 11:11:39;;;;;;;0.30;0.30;;;;;;;12.76;100.00;100740.13;5058034;28;20029;-76
2023/09/30 11:14:22;;;;;;;0.30;0.30;;;;;;;12.76;100.00;100734.75;5074308;28;20037;-76
2023/09/30 11:16:53;;;;;;;0.30;0.30;;;;;;;12.78;100.00;100732.69;5057528;28;20055;-76
2023/09/30 11:19:23;;;;;;;0.30;0.30;;;;;;;12.74;100.00;100731.41;5074150;28;20045;-76
2023/09/30 11:21:49;;;;;;;0.30;0.30;;;;;;;12.67;100.00;100708.91;5057725;28;20040;-76